Time;durP1;ratioP1;P1;durP2;ratioP2;P2;SDS_P1;SDS_P2;PMS_P1;PMS_P2;Temp;Humidity;BMP_temperature;BMP_pressure;BME280_temperature;BME280_humidity;BME280_pressure;Samples;Min_cycle;Max_cycle;Signal;HPM_P1;HPM_P2
2022/05/11 00:01:44;;;;;;;5.47;4.97;;;;;;;;;;5057974;28;20217;-67
2022/05/11 00:04:11;;;;;;;4.78;4.30;;;;;;;;;;5066525;28;20232;-66
2022/05/11 00:06:39;;;;;;;4.72;4.28;;;;;;;;;;5073453;28;20205;-69
2022/05/11 00:09:08;;;;;;;4.65;4.22;;;;;;;;;;5062051;28;20232;-65
2022/05/11 00:11:36;;;;;;;4.07;3.78;;;;;;;;;;5060182;28;20242;-66
2022/05/11 00:14:04;;;;;;;4.63;4.20;;;;;;;;;;5080268;28;20220;-67
2022/05/11 00:16:32;;;;;;;4.30;3.92;;;;;;;;;;5061151;28;20569;-67
2022/05/11 00:18:59;;;;;;;5.30;4.80;;;;;;;;;;5056998;28;20769;-65
2022/05/11 00:21:27;;;;;;;5.00;4.60;;;;;;;;;;5062079;28;20270;-69
2022/05/11 00:23:54;;;;;;;4.75;4.35;;;;;;;;;;5056887;28;20893;-68
2022/05/11 00:26:22;;;;;;;4.57;4.18;;;;;;;;;;5070870;28;20201;-70
2022/05/11 00:28:49;;;;;;;9.38;4.50;;;;;;;;;;5092165;28;20216;-70
2022/05/11 00:31:16;;;;;;;5.05;4.65;;;;;;;;;;5069726;28;20205;-68
2022/05/11 00:33:44;;;;;;;4.63;4.20;;;;;;;;;;5068607;28;20201;-65
2022/05/11 00:36:12;;;;;;;4.22;3.92;;;;;;;;;;5070209;28;20694;-66
2022/05/11 00:38:40;;;;;;;4.50;4.18;;;;;;;;;;5066202;28;20266;-68
2022/05/11 00:41:08;;;;;;;4.55;4.15;;;;;;;;;;5064347;28;20213;-65
2022/05/11 00:43:35;;;;;;;4.60;4.10;;;;;;;;;;5061607;28;20217;-66
2022/05/11 00:46:09;;;;;;;4.97;4.57;;;;;;;;;;5059920;28;20201;-66
2022/05/11 00:51:23;;;;;;;4.43;4.07;;;;;;;;;;5074608;28;21698;-66
2022/05/11 00:53:54;;;;;;;4.10;3.83;;;;;;;;;;5065298;28;20670;-66
2022/05/11 00:56:22;;;;;;;4.60;4.20;;;;;;;;;;5062832;28;20213;-66
2022/05/11 00:58:51;;;;;;;4.13;3.83;;;;;;;;;;5051651;28;20844;-67
2022/05/11 01:01:19;;;;;;;4.07;3.75;;;;;;;;;;5049998;28;20295;-66
2022/05/11 01:03:51;;;;;;;5.65;4.35;;;;;;;;;;5074860;28;20292;-64
2022/05/11 01:06:19;;;;;;;5.00;4.50;;;;;;;;;;5061512;28;20235;-67
2022/05/11 01:08:47;;;;;;;4.88;4.47;;;;;;;;;;5061885;28;20723;-64
2022/05/11 01:11:14;;;;;;;4.53;4.13;;;;;;;;;;5055182;28;20439;-66
2022/05/11 01:13:43;;;;;;;5.60;4.20;;;;;;;;;;5059208;28;21320;-67
2022/05/11 01:16:11;;;;;;;4.55;4.25;;;;;;;;;;5064099;28;20205;-68
2022/05/11 01:18:42;;;;;;;4.75;4.30;;;;;;;;;;5061442;28;20339;-66
2022/05/11 01:21:09;;;;;;;4.22;3.92;;;;;;;;;;5067396;28;20224;-70
2022/05/11 01:23:50;;;;;;;5.25;4.75;;;;;;;;;;5065553;28;20200;-66
2022/05/11 01:26:19;;;;;;;4.40;4.00;;;;;;;;;;5054024;28;20346;-67
2022/05/11 01:28:47;;;;;;;4.80;4.40;;;;;;;;;;5056009;28;20212;-67
2022/05/11 01:31:16;;;;;;;4.88;4.47;;;;;;;;;;5062449;28;20208;-69
2022/05/11 01:33:46;;;;;;;4.70;4.17;;;;;;;;;;5060766;28;20236;-66
2022/05/11 01:36:25;;;;;;;4.72;4.30;;;;;;;;;;5063256;28;20638;-66
2022/05/11 01:38:55;;;;;;;6.73;4.37;;;;;;;;;;5060784;28;20225;-70
2022/05/11 01:41:28;;;;;;;4.47;4.17;;;;;;;;;;5077297;28;20209;-67
2022/05/11 01:43:56;;;;;;;4.73;4.43;;;;;;;;;;5068900;28;23460;-64
2022/05/11 01:46:24;;;;;;;4.97;4.47;;;;;;;;;;5066516;28;20205;-65
2022/05/11 01:48:51;;;;;;;6.27;4.90;;;;;;;;;;5061003;28;20226;-66
2022/05/11 01:51:19;;;;;;;5.43;4.40;;;;;;;;;;5063284;28;20209;-67
2022/05/11 01:53:47;;;;;;;4.83;4.43;;;;;;;;;;5052020;28;20623;-65
2022/05/11 01:56:16;;;;;;;5.10;4.70;;;;;;;;;;5064524;28;20201;-68
2022/05/11 01:58:43;;;;;;;5.60;4.50;;;;;;;;;;5054061;28;20789;-68
2022/05/11 02:01:11;;;;;;;5.03;4.53;;;;;;;;;;5061847;28;20232;-66
2022/05/11 02:03:39;;;;;;;5.53;5.03;;;;;;;;;;5082549;28;20206;-66
2022/05/11 02:08:52;;;;;;;5.70;5.20;;;;;;;;;;5101280;28;20208;-70
2022/05/11 02:11:20;;;;;;;8.47;4.63;;;;;;;;;;5055658;28;20204;-67
2022/05/11 02:13:47;;;;;;;5.50;5.00;;;;;;;;;;5058744;28;20205;-65
2022/05/11 02:16:14;;;;;;;5.20;4.80;;;;;;;;;;5061650;28;20229;-67
2022/05/11 02:18:42;;;;;;;5.37;4.87;;;;;;;;;;5057136;28;20243;-68
2022/05/11 02:21:09;;;;;;;5.87;5.37;;;;;;;;;;5053246;28;20205;-66
2022/05/11 02:23:37;;;;;;;5.83;5.23;;;;;;;;;;5059497;28;20207;-68
2022/05/11 02:26:06;;;;;;;6.13;5.37;;;;;;;;;;5056491;28;20232;-67
2022/05/11 02:28:33;;;;;;;5.47;4.97;;;;;;;;;;5055717;28;20242;-65
2022/05/11 02:31:02;;;;;;;6.00;5.40;;;;;;;;;;5063354;28;20608;-67
2022/05/11 02:33:30;;;;;;;5.60;5.10;;;;;;;;;;5077923;28;20740;-65
2022/05/11 02:35:58;;;;;;;5.57;5.07;;;;;;;;;;5067044;28;20208;-68
2022/05/11 02:38:26;;;;;;;5.50;5.00;;;;;;;;;;5056148;28;20905;-65
2022/05/11 02:40:54;;;;;;;7.53;5.97;;;;;;;;;;5061360;28;20678;-66
2022/05/11 02:43:21;;;;;;;5.67;5.17;;;;;;;;;;5065636;28;20244;-65
2022/05/11 02:45:49;;;;;;;5.57;5.07;;;;;;;;;;5066687;28;20251;-68
2022/05/11 02:48:19;;;;;;;6.40;5.40;;;;;;;;;;5059406;28;20783;-67
2022/05/11 02:50:48;;;;;;;6.00;5.40;;;;;;;;;;5070491;28;21161;-66
2022/05/11 02:53:16;;;;;;;6.10;5.50;;;;;;;;;;5062184;28;20197;-66
2022/05/11 02:55:45;;;;;;;6.10;5.60;;;;;;;;;;5061309;28;20272;-70
2022/05/11 02:58:14;;;;;;;6.20;5.70;;;;;;;;;;5072444;28;20287;-66
2022/05/11 03:00:44;;;;;;;6.13;5.47;;;;;;;;;;5058790;28;20204;-67
2022/05/11 03:03:12;;;;;;;6.53;5.93;;;;;;;;;;5057758;28;20216;-67
2022/05/11 03:05:40;;;;;;;6.20;5.70;;;;;;;;;;5077244;28;20243;-66
2022/05/11 03:08:08;;;;;;;6.73;5.80;;;;;;;;;;5056606;28;20690;-70
2022/05/11 03:10:35;;;;;;;6.03;5.53;;;;;;;;;;5053967;28;20306;-68
2022/05/11 03:13:03;;;;;;;6.23;5.73;;;;;;;;;;5072037;28;20245;-66
2022/05/11 03:15:31;;;;;;;7.03;5.60;;;;;;;;;;5059812;28;20198;-66
2022/05/11 03:17:59;;;;;;;6.27;5.67;;;;;;;;;;5067324;28;20228;-69
2022/05/11 03:20:26;;;;;;;6.73;5.77;;;;;;;;;;5050158;28;20617;-69
2022/05/11 03:22:55;;;;;;;6.03;5.53;;;;;;;;;;5076953;28;20732;-68
2022/05/11 03:25:23;;;;;;;6.30;5.37;;;;;;;;;;5066392;28;20217;-69
2022/05/11 03:27:51;;;;;;;6.53;5.80;;;;;;;;;;5089394;28;20281;-65
2022/05/11 03:30:18;;;;;;;6.60;6.00;;;;;;;;;;5065753;28;20232;-68
2022/05/11 03:35:31;;;;;;;6.40;5.60;;;;;;;;;;5064435;28;20221;-67
2022/05/11 03:37:59;;;;;;;6.37;5.77;;;;;;;;;;5059310;28;21804;-68
2022/05/11 03:40:26;;;;;;;6.63;5.63;;;;;;;;;;5061790;28;20819;-67
2022/05/11 03:42:54;;;;;;;5.97;5.43;;;;;;;;;;5047057;28;20204;-67
2022/05/11 03:45:23;;;;;;;5.97;5.37;;;;;;;;;;5054179;28;20236;-65
2022/05/11 03:47:51;;;;;;;6.33;5.73;;;;;;;;;;5057673;28;20221;-66
2022/05/11 03:50:22;;;;;;;6.10;5.50;;;;;;;;;;5050806;28;20201;-66
2022/05/11 03:52:50;;;;;;;6.07;5.53;;;;;;;;;;5055814;28;21781;-68
2022/05/11 03:55:18;;;;;;;5.73;5.23;;;;;;;;;;5063709;28;20209;-67
2022/05/11 03:57:46;;;;;;;6.00;5.37;;;;;;;;;;5059928;28;20228;-65
2022/05/11 04:00:21;;;;;;;5.77;5.17;;;;;;;;;;5069420;28;20205;-66
2022/05/11 04:02:50;;;;;;;5.80;5.30;;;;;;;;;;5071577;28;23331;-67
2022/05/11 04:05:20;;;;;;;6.13;5.53;;;;;;;;;;5066788;28;20255;-66
2022/05/11 04:07:47;;;;;;;6.23;5.63;;;;;;;;;;5072395;28;20296;-66
2022/05/11 04:10:16;;;;;;;10.90;5.57;;;;;;;;;;5057149;28;20220;-67
2022/05/11 04:12:43;;;;;;;6.50;5.60;;;;;;;;;;5076042;28;20204;-67
2022/05/11 04:15:11;;;;;;;6.27;5.67;;;;;;;;;;5050859;28;20204;-65
2022/05/11 04:17:39;;;;;;;6.60;5.10;;;;;;;;;;5056394;28;20229;-67
2022/05/11 04:20:08;;;;;;;5.63;5.00;;;;;;;;;;5049208;28;20242;-68
2022/05/11 04:22:38;;;;;;;5.13;4.73;;;;;;;;;;5063120;28;20224;-64
2022/05/11 04:25:05;;;;;;;5.60;5.10;;;;;;;;;;5050850;28;20851;-66
2022/05/11 04:27:34;;;;;;;6.10;5.50;;;;;;;;;;5056894;28;20254;-66
2022/05/11 04:30:06;;;;;;;5.80;5.30;;;;;;;;;;5069735;28;20209;-65
2022/05/11 04:32:35;;;;;;;5.60;5.10;;;;;;;;;;5060695;28;20286;-65
2022/05/11 04:35:03;;;;;;;5.53;5.13;;;;;;;;;;5060691;28;20254;-66
2022/05/11 04:37:31;;;;;;;5.97;5.37;;;;;;;;;;5057408;28;20221;-65
2022/05/11 04:39:58;;;;;;;5.10;4.60;;;;;;;;;;5066739;28;20205;-65
2022/05/11 04:42:26;;;;;;;5.53;5.03;;;;;;;;;;5064733;28;20666;-67
2022/05/11 04:44:54;;;;;;;6.03;5.27;;;;;;;;;;5067329;28;20232;-66
2022/05/11 04:47:21;;;;;;;5.70;5.20;;;;;;;;;;5064716;28;20221;-66
2022/05/11 04:49:52;;;;;;;4.90;4.50;;;;;;;;;;5055769;28;20220;-67
2022/05/11 04:52:20;;;;;;;5.10;4.50;;;;;;;;;;5074263;28;20201;-64
2022/05/11 04:54:48;;;;;;;5.57;4.43;;;;;;;;;;5060883;28;20649;-69
2022/05/11 04:57:16;;;;;;;5.00;4.53;;;;;;;;;;5060656;28;20813;-65
2022/05/11 04:59:44;;;;;;;4.90;4.50;;;;;;;;;;5063661;28;20201;-68
2022/05/11 05:02:19;;;;;;;4.90;4.40;;;;;;;;;;5053191;28;20201;-66
2022/05/11 05:04:47;;;;;;;5.37;4.93;;;;;;;;;;5061740;28;20670;-69
2022/05/11 05:07:15;;;;;;;4.93;4.53;;;;;;;;;;5059533;28;20303;-66
2022/05/11 05:09:42;;;;;;;7.57;4.77;;;;;;;;;;5064226;28;20220;-66
2022/05/11 05:12:10;;;;;;;5.37;4.83;;;;;;;;;;5068427;28;20208;-66
2022/05/11 05:14:38;;;;;;;6.13;4.70;;;;;;;;;;5071105;28;20205;-66
2022/05/11 05:17:08;;;;;;;6.23;4.60;;;;;;;;;;5062632;28;20208;-65
2022/05/11 05:19:37;;;;;;;5.90;4.87;;;;;;;;;;5060674;28;20220;-66
2022/05/11 05:22:04;;;;;;;4.90;4.50;;;;;;;;;;5059034;28;20657;-66
2022/05/11 05:24:33;;;;;;;5.20;4.70;;;;;;;;;;5054581;28;20234;-65
2022/05/11 05:27:02;;;;;;;4.63;4.00;;;;;;;;;;5078655;28;20366;-67
2022/05/11 05:32:16;;;;;;;4.38;3.60;;;;;;;;;;5079378;28;20771;-66
2022/05/11 05:34:44;;;;;;;3.58;3.30;;;;;;;;;;5064366;28;20205;-65
2022/05/11 05:37:12;;;;;;;3.60;3.30;;;;;;;;;;5053943;28;20217;-65
2022/05/11 05:39:40;;;;;;;3.10;2.90;;;;;;;;;;5039621;28;20209;-67
2022/05/11 05:42:08;;;;;;;3.10;2.90;;;;;;;;;;5038494;28;20201;-65
2022/05/11 05:44:38;;;;;;;3.25;2.95;;;;;;;;;;5047595;28;20274;-65
2022/05/11 05:47:06;;;;;;;3.03;2.83;;;;;;;;;;5042111;28;20228;-68
2022/05/11 05:49:34;;;;;;;3.30;3.00;;;;;;;;;;5042986;28;20767;-65
2022/05/11 05:52:02;;;;;;;2.78;2.58;;;;;;;;;;5046806;28;20449;-68
2022/05/11 05:54:30;;;;;;;3.35;2.70;;;;;;;;;;5053491;28;20205;-65
2022/05/11 05:56:58;;;;;;;2.95;2.75;;;;;;;;;;5062165;28;20629;-64
2022/05/11 05:59:26;;;;;;;2.85;2.67;;;;;;;;;;5058567;28;20212;-66
2022/05/11 06:01:53;;;;;;;2.80;2.60;;;;;;;;;;5055386;28;20300;-65
2022/05/11 06:04:20;;;;;;;2.97;2.78;;;;;;;;;;5048400;28;20212;-68
2022/05/11 06:06:48;;;;;;;2.95;2.75;;;;;;;;;;5058022;28;20755;-67
2022/05/11 06:09:15;;;;;;;3.17;2.92;;;;;;;;;;5055513;28;20303;-65
2022/05/11 06:11:43;;;;;;;2.90;2.70;;;;;;;;;;5038767;28;20212;-66
2022/05/11 06:14:11;;;;;;;3.40;3.10;;;;;;;;;;5040711;28;20547;-69
2022/05/11 06:16:38;;;;;;;3.28;2.97;;;;;;;;;;5034240;28;20213;-69
2022/05/11 06:19:06;;;;;;;4.07;3.55;;;;;;;;;;5038935;28;20228;-69
2022/05/11 06:21:34;;;;;;;3.90;3.60;;;;;;;;;;5060697;28;20219;-67
2022/05/11 06:24:02;;;;;;;4.05;3.60;;;;;;;;;;5044366;28;20223;-66
2022/05/11 06:26:29;;;;;;;4.43;4.03;;;;;;;;;;5047364;28;20904;-66
2022/05/11 06:29:16;;;;;;;4.88;3.78;;;;;;;;;;5047595;28;20513;-69
2022/05/11 06:31:44;;;;;;;4.40;4.10;;;;;;;;;;5061753;28;20205;-66
2022/05/11 06:34:11;;;;;;;7.05;4.32;;;;;;;;;;5062752;28;20324;-65
2022/05/11 06:36:39;;;;;;;4.20;3.85;;;;;;;;;;5043383;28;20205;-65
2022/05/11 06:39:06;;;;;;;4.32;3.97;;;;;;;;;;5043335;28;20706;-65
2022/05/11 06:41:34;;;;;;;4.10;3.80;;;;;;;;;;5062501;28;20230;-66
2022/05/11 06:44:03;;;;;;;4.68;3.90;;;;;;;;;;5048538;28;20320;-67
2022/05/11 06:46:32;;;;;;;4.05;3.75;;;;;;;;;;5050503;28;21005;-66
2022/05/11 06:48:59;;;;;;;4.30;3.90;;;;;;;;;;5045213;28;20221;-67
2022/05/11 06:51:27;;;;;;;4.20;3.80;;;;;;;;;;5046662;28;20659;-66
2022/05/11 06:59:27;;;;;;;4.35;3.95;;;;;;;;;;5080667;28;20205;-64
2022/05/11 07:01:57;;;;;;;4.28;3.97;;;;;;;;;;5054409;28;20216;-68
2022/05/11 07:04:26;;;;;;;4.50;4.10;;;;;;;;;;5063661;28;20292;-68
2022/05/11 07:06:54;;;;;;;4.32;4.00;;;;;;;;;;5063047;28;20228;-66
2022/05/11 07:09:23;;;;;;;5.18;4.22;;;;;;;;;;5065913;28;21347;-65
2022/05/11 07:14:37;;;;;;;5.40;4.18;;;;;;;;;;5079916;28;20196;-65
2022/05/11 07:17:04;;;;;;;4.25;3.85;;;;;;;;;;5061897;28;20617;-66
2022/05/11 07:19:33;;;;;;;4.63;4.22;;;;;;;;;;5039170;28;20209;-66
2022/05/11 07:22:01;;;;;;;15.45;4.60;;;;;;;;;;5043499;28;20245;-65
2022/05/11 07:24:29;;;;;;;5.07;4.57;;;;;;;;;;5045475;28;20266;-65
2022/05/11 07:26:56;;;;;;;4.47;4.07;;;;;;;;;;5051115;28;20304;-67
2022/05/11 07:29:23;;;;;;;4.70;4.15;;;;;;;;;;5048763;28;20201;-66
2022/05/11 07:31:51;;;;;;;4.75;4.10;;;;;;;;;;5052193;28;20204;-66
2022/05/11 07:34:18;;;;;;;4.55;4.13;;;;;;;;;;5050720;28;20194;-65
2022/05/11 07:36:46;;;;;;;4.63;4.20;;;;;;;;;;5054865;28;20327;-67
2022/05/11 07:39:13;;;;;;;4.57;4.03;;;;;;;;;;5058688;28;20627;-66
2022/05/11 07:41:41;;;;;;;4.47;4.18;;;;;;;;;;5054459;28;20220;-66
2022/05/11 07:44:08;;;;;;;6.53;4.35;;;;;;;;;;5047383;28;20209;-67
2022/05/11 07:46:36;;;;;;;4.95;4.45;;;;;;;;;;5051288;28;20289;-66
2022/05/11 07:49:06;;;;;;;4.60;4.20;;;;;;;;;;5052704;28;20225;-67
2022/05/11 07:51:37;;;;;;;5.43;4.82;;;;;;;;;;5055675;28;20667;-67
2022/05/11 07:54:05;;;;;;;4.00;3.70;;;;;;;;;;5064914;28;20231;-66
2022/05/11 08:02:04;;;;;;;4.68;4.20;;;;;;;;;;5080638;28;20217;-67
2022/05/11 08:04:32;;;;;;;4.45;4.15;;;;;;;;;;5063167;28;20206;-66
2022/05/11 08:07:00;;;;;;;4.55;4.13;;;;;;;;;;5054346;28;20229;-66
2022/05/11 08:09:28;;;;;;;5.55;4.70;;;;;;;;;;5045760;28;20212;-66
2022/05/11 08:11:56;;;;;;;4.60;4.20;;;;;;;;;;5056845;28;20205;-66
2022/05/11 08:14:23;;;;;;;4.65;4.20;;;;;;;;;;5052832;28;20211;-66
2022/05/11 08:16:54;;;;;;;4.55;3.95;;;;;;;;;;5055434;28;20205;-67
2022/05/11 08:19:23;;;;;;;6.22;4.18;;;;;;;;;;5051370;28;20229;-67
2022/05/11 08:21:51;;;;;;;6.97;4.15;;;;;;;;;;5053909;28;20202;-66
2022/05/11 08:24:19;;;;;;;4.18;3.88;;;;;;;;;;5052521;28;20402;-67
2022/05/11 08:26:46;;;;;;;3.58;3.20;;;;;;;;;;5060032;28;20221;-67
2022/05/11 08:34:47;;;;;;;3.00;2.70;;;;;;;;;;5073421;28;20215;-66
2022/05/11 08:37:15;;;;;;;3.08;2.78;;;;;;;;;;5065259;28;20224;-66
2022/05/11 08:39:43;;;;;;;5.97;2.28;;;;;;;;;;5056977;28;20205;-66
2022/05/11 08:42:12;;;;;;;2.80;2.60;;;;;;;;;;5065739;28;20212;-66
2022/05/11 08:44:43;;;;;;;4.07;2.42;;;;;;;;;;5061542;28;20256;-66
2022/05/11 08:47:32;;;;;;;2.53;2.38;;;;;;;;;;5067647;28;20279;-66
2022/05/11 08:50:19;;;;;;;2.97;2.20;;;;;;;;;;5063329;28;20230;-66
2022/05/11 08:52:57;;;;;;;6.28;2.83;;;;;;;;;;5062553;28;20198;-67
2022/05/11 08:55:24;;;;;;;2.70;2.47;;;;;;;;;;5058852;28;20201;-66
2022/05/11 08:57:54;;;;;;;3.38;2.70;;;;;;;;;;5065197;28;20285;-67
2022/05/11 09:00:22;;;;;;;2.90;2.55;;;;;;;;;;5061337;28;20212;-67
2022/05/11 09:02:53;;;;;;;2.85;2.65;;;;;;;;;;5062037;28;20216;-66
2022/05/11 09:05:23;;;;;;;5.57;3.13;;;;;;;;;;5068309;28;20213;-67
2022/05/11 09:07:53;;;;;;;2.65;2.45;;;;;;;;;;5073549;28;20232;-67
2022/05/11 09:10:31;;;;;;;4.65;2.95;;;;;;;;;;5071647;28;20308;-67
2022/05/11 09:12:59;;;;;;;3.97;2.72;;;;;;;;;;5064209;28;20197;-66
2022/05/11 09:15:45;;;;;;;2.90;2.55;;;;;;;;;;5073037;28;20204;-67
2022/05/11 09:18:13;;;;;;;3.10;2.80;;;;;;;;;;5060288;28;20282;-67
2022/05/11 09:20:46;;;;;;;2.85;2.65;;;;;;;;;;5060536;28;20274;-67
2022/05/11 09:23:13;;;;;;;3.38;2.75;;;;;;;;;;5063205;28;20212;-66
2022/05/11 09:25:54;;;;;;;2.88;2.67;;;;;;;;;;5069987;28;20308;-66
2022/05/11 09:28:23;;;;;;;3.05;2.85;;;;;;;;;;5064207;28;20218;-66
2022/05/11 09:31:06;;;;;;;3.50;3.20;;;;;;;;;;5066247;28;20212;-67
2022/05/11 09:33:35;;;;;;;4.30;3.10;;;;;;;;;;5070941;28;20254;-67
2022/05/11 09:36:03;;;;;;;3.25;3.05;;;;;;;;;;5071271;28;20208;-67
2022/05/11 09:38:51;;;;;;;3.35;3.05;;;;;;;;;;5064422;28;20225;-67
2022/05/11 09:41:18;;;;;;;3.00;2.80;;;;;;;;;;5066458;28;20204;-69
2022/05/11 09:43:56;;;;;;;3.65;3.35;;;;;;;;;;5058380;28;20274;-66
2022/05/11 09:46:27;;;;;;;4.43;2.70;;;;;;;;;;5062008;28;20228;-66
2022/05/11 09:49:00;;;;;;;3.55;3.05;;;;;;;;;;5067192;28;20240;-66
2022/05/11 09:51:37;;;;;;;4.78;3.40;;;;;;;;;;5056631;28;20200;-66
2022/05/11 09:54:17;;;;;;;3.95;3.40;;;;;;;;;;5068252;28;20208;-66
2022/05/11 09:56:52;;;;;;;3.97;3.13;;;;;;;;;;5055085;28;20748;-67
2022/05/11 09:59:52;;;;;;;3.92;3.63;;;;;;;;;;5066882;28;20201;-66
2022/05/11 10:02:22;;;;;;;3.50;3.22;;;;;;;;;;5029482;28;20300;-67
2022/05/11 10:04:53;;;;;;;4.53;3.22;;;;;;;;;;5061920;28;20571;-67
2022/05/11 10:07:20;;;;;;;6.82;3.20;;;;;;;;;;5065114;28;20382;-66
2022/05/11 10:09:53;;;;;;;3.72;3.42;;;;;;;;;;5063502;28;20206;-66
2022/05/11 10:12:23;;;;;;;4.18;3.63;;;;;;;;;;5066361;28;20201;-67
2022/05/11 10:23:53;;;;;;;4.47;4.07;;;;;;;;;;5017584;28;20214;-65
2022/05/11 10:26:25;;;;;;;3.85;3.55;;;;;;;;;;5070747;28;20224;-68
2022/05/11 10:29:01;;;;;;;4.65;3.25;;;;;;;;;;5062907;28;20277;-67
2022/05/11 10:31:39;;;;;;;4.68;3.15;;;;;;;;;;5075915;28;20270;-67
2022/05/11 10:34:06;;;;;;;5.00;3.40;;;;;;;;;;5064175;28;20197;-67
2022/05/11 10:36:43;;;;;;;3.80;3.50;;;;;;;;;;5064075;28;20219;-67
2022/05/11 10:39:10;;;;;;;4.60;3.13;;;;;;;;;;5077916;28;20286;-67
2022/05/11 10:41:46;;;;;;;4.00;3.25;;;;;;;;;;5066958;28;20197;-66
2022/05/11 10:44:32;;;;;;;3.47;3.28;;;;;;;;;;5054940;28;20209;-67
2022/05/11 10:47:03;;;;;;;5.22;3.40;;;;;;;;;;5079656;28;20224;-68
2022/05/11 10:49:49;;;;;;;6.30;3.10;;;;;;;;;;5079537;28;20706;-66
2022/05/11 10:52:16;;;;;;;3.65;3.35;;;;;;;;;;5062875;28;20225;-67
2022/05/11 10:54:50;;;;;;;3.42;3.13;;;;;;;;;;5064172;28;20577;-66
2022/05/11 10:57:20;;;;;;;3.47;3.10;;;;;;;;;;5079002;28;20301;-66
2022/05/11 10:59:54;;;;;;;3.40;3.10;;;;;;;;;;5078556;28;20200;-67
2022/05/11 11:02:27;;;;;;;3.78;3.45;;;;;;;;;;5056610;28;20283;-67
2022/05/11 11:05:11;;;;;;;3.85;3.55;;;;;;;;;;5063743;28;20215;-66
2022/05/11 11:07:45;;;;;;;4.35;3.17;;;;;;;;;;5058687;28;20282;-67
2022/05/11 11:10:31;;;;;;;4.93;3.00;;;;;;;;;;5060425;28;20212;-67
2022/05/11 11:13:03;;;;;;;4.45;3.35;;;;;;;;;;5059321;28;21202;-66
2022/05/11 11:15:32;;;;;;;3.90;3.60;;;;;;;;;;5077473;28;20645;-67
2022/05/11 11:18:02;;;;;;;4.38;3.05;;;;;;;;;;5060867;28;20228;-66
2022/05/11 11:20:32;;;;;;;3.33;3.00;;;;;;;;;;5056910;28;20212;-66
2022/05/11 11:23:14;;;;;;;3.30;3.10;;;;;;;;;;5051571;28;20859;-66
2022/05/11 11:26:05;;;;;;;3.53;3.30;;;;;;;;;;5058750;28;20834;-67
2022/05/11 11:28:53;;;;;;;3.30;3.00;;;;;;;;;;5061331;28;20228;-66
2022/05/11 11:31:22;;;;;;;3.38;3.08;;;;;;;;;;5055314;28;20212;-66
2022/05/11 11:34:05;;;;;;;4.43;3.05;;;;;;;;;;5061771;28;20665;-66
2022/05/11 11:36:36;;;;;;;3.47;3.17;;;;;;;;;;5061940;28;20247;-66
2022/05/11 11:39:04;;;;;;;4.05;3.45;;;;;;;;;;5074511;28;20224;-66
2022/05/11 11:41:41;;;;;;;3.10;2.90;;;;;;;;;;5073728;28;20251;-66
2022/05/11 11:44:21;;;;;;;6.55;3.53;;;;;;;;;;5062502;28;20208;-66
2022/05/11 11:46:50;;;;;;;3.50;3.20;;;;;;;;;;5059698;28;20231;-66
2022/05/11 11:49:18;;;;;;;4.50;3.33;;;;;;;;;;5073864;28;20273;-66
2022/05/11 11:51:53;;;;;;;3.90;3.50;;;;;;;;;;5074982;28;20295;-66
2022/05/11 11:54:39;;;;;;;4.65;3.47;;;;;;;;;;5075236;28;20582;-66
2022/05/11 11:57:16;;;;;;;4.82;3.30;;;;;;;;;;5069606;28;20552;-65
2022/05/11 11:59:49;;;;;;;3.50;3.20;;;;;;;;;;5069798;28;20200;-67
2022/05/11 12:02:19;;;;;;;5.50;3.38;;;;;;;;;;5072545;28;20205;-67
2022/05/11 12:05:05;;;;;;;5.38;3.40;;;;;;;;;;5068195;28;20208;-66
2022/05/11 12:15:59;;;;;;;3.10;2.90;;;;;;;;;;5083956;28;20205;-66
2022/05/11 12:18:28;;;;;;;3.22;3.03;;;;;;;;;;5067998;28;20237;-66
2022/05/11 12:20:56;;;;;;;4.97;3.45;;;;;;;;;;5064354;28;20219;-66
2022/05/11 12:23:26;;;;;;;4.75;3.22;;;;;;;;;;5073033;28;20208;-68
2022/05/11 12:25:56;;;;;;;3.30;3.03;;;;;;;;;;5071212;28;20254;-67
2022/05/11 12:28:28;;;;;;;3.25;2.85;;;;;;;;;;5068217;28;20221;-66
2022/05/11 12:30:56;;;;;;;3.42;3.00;;;;;;;;;;5068038;28;20271;-66
2022/05/11 12:33:28;;;;;;;2.97;2.78;;;;;;;;;;5067889;28;20219;-66
2022/05/11 12:35:56;;;;;;;3.60;2.83;;;;;;;;;;5066400;28;20254;-66
2022/05/11 12:38:26;;;;;;;4.30;2.92;;;;;;;;;;5064736;28;20722;-66
2022/05/11 12:40:54;;;;;;;3.00;2.80;;;;;;;;;;5070511;28;20270;-65
2022/05/11 12:43:33;;;;;;;5.05;3.40;;;;;;;;;;5066417;28;20212;-67
2022/05/11 12:46:02;;;;;;;4.20;2.95;;;;;;;;;;5065987;28;20629;-66
2022/05/11 12:48:35;;;;;;;4.20;2.80;;;;;;;;;;5078157;28;20732;-66
2022/05/11 12:51:14;;;;;;;3.50;3.20;;;;;;;;;;5061065;28;20212;-67
2022/05/11 12:53:50;;;;;;;3.33;2.97;;;;;;;;;;5061000;28;20203;-67
2022/05/11 12:56:22;;;;;;;3.60;2.55;;;;;;;;;;5072429;28;20203;-67
2022/05/11 12:58:53;;;;;;;3.30;3.00;;;;;;;;;;5059286;28;20286;-66
2022/05/11 13:01:22;;;;;;;3.10;2.80;;;;;;;;;;5061458;28;20204;-67
2022/05/11 13:03:51;;;;;;;5.40;3.10;;;;;;;;;;5085257;28;20213;-66
2022/05/11 13:06:25;;;;;;;3.47;2.97;;;;;;;;;;5064084;28;20242;-66
2022/05/11 13:08:54;;;;;;;3.00;2.80;;;;;;;;;;5063116;28;20751;-67
2022/05/11 13:11:24;;;;;;;3.95;3.10;;;;;;;;;;5071237;28;20651;-66
2022/05/11 13:13:55;;;;;;;3.75;3.05;;;;;;;;;;5067803;28;20197;-65
2022/05/11 13:16:24;;;;;;;4.35;2.85;;;;;;;;;;5069038;28;20205;-66
2022/05/11 13:19:03;;;;;;;4.95;2.95;;;;;;;;;;5083925;28;20228;-66
2022/05/11 13:21:35;;;;;;;3.15;2.85;;;;;;;;;;5061562;28;20219;-67
2022/05/11 13:24:04;;;;;;;6.07;3.08;;;;;;;;;;5064398;28;20212;-67
2022/05/11 13:26:35;;;;;;;2.67;2.40;;;;;;;;;;5067449;28;20219;-66
2022/05/11 13:29:18;;;;;;;2.80;2.60;;;;;;;;;;5062788;28;20225;-66
2022/05/11 13:31:46;;;;;;;3.10;2.28;;;;;;;;;;5075115;28;20212;-65
2022/05/11 13:34:39;;;;;;;2.60;2.45;;;;;;;;;;5062565;28;20593;-67
2022/05/11 13:37:12;;;;;;;2.92;2.72;;;;;;;;;;5054052;28;20201;-67
2022/05/11 13:39:39;;;;;;;7.20;2.78;;;;;;;;;;5070177;28;20204;-67
2022/05/11 13:42:13;;;;;;;2.90;2.70;;;;;;;;;;5071604;28;20258;-67
2022/05/11 13:44:48;;;;;;;2.78;2.58;;;;;;;;;;5077536;28;20201;-67
2022/05/11 13:50:29;;;;;;;2.90;2.58;;;;;;;;;;5083052;28;20242;-67
2022/05/11 13:53:01;;;;;;;3.40;2.55;;;;;;;;;;5073374;28;20203;-67
2022/05/11 13:55:31;;;;;;;3.80;2.88;;;;;;;;;;5065729;28;20193;-67
2022/05/11 13:58:17;;;;;;;3.67;2.63;;;;;;;;;;5064911;28;20641;-67
2022/05/11 14:00:44;;;;;;;3.25;2.38;;;;;;;;;;5063239;28;20244;-67
2022/05/11 14:03:15;;;;;;;3.08;2.45;;;;;;;;;;5065254;28;20659;-67
2022/05/11 14:05:45;;;;;;;2.65;2.38;;;;;;;;;;5070901;28;20258;-67
2022/05/11 14:08:13;;;;;;;3.60;2.53;;;;;;;;;;5065683;28;20320;-65
2022/05/11 14:10:40;;;;;;;3.33;2.65;;;;;;;;;;5053226;28;20217;-65
2022/05/11 14:13:08;;;;;;;2.60;2.40;;;;;;;;;;5066305;28;20242;-65
2022/05/11 14:15:35;;;;;;;2.80;2.50;;;;;;;;;;5066435;28;20209;-65
2022/05/11 14:18:04;;;;;;;2.85;2.53;;;;;;;;;;5072122;28;20256;-66
2022/05/11 14:20:32;;;;;;;3.83;2.70;;;;;;;;;;5067552;28;20680;-66
2022/05/11 14:23:00;;;;;;;2.70;2.50;;;;;;;;;;5069401;28;20746;-66
2022/05/11 14:25:27;;;;;;;4.90;2.40;;;;;;;;;;5068925;28;20200;-66
2022/05/11 14:28:14;;;;;;;3.15;2.45;;;;;;;;;;5066179;28;20274;-65
2022/05/11 14:30:42;;;;;;;3.60;2.67;;;;;;;;;;5064872;28;20205;-65
2022/05/11 14:33:15;;;;;;;2.70;2.50;;;;;;;;;;5063224;28;20205;-68
2022/05/11 14:35:43;;;;;;;2.60;2.40;;;;;;;;;;5066574;28;20823;-64
2022/05/11 14:38:10;;;;;;;4.30;2.92;;;;;;;;;;5058978;28;20234;-67
2022/05/11 14:40:38;;;;;;;3.50;2.35;;;;;;;;;;5053513;28;20198;-65
2022/05/11 14:43:05;;;;;;;4.35;3.05;;;;;;;;;;5055192;28;20204;-68
2022/05/11 14:45:35;;;;;;;2.40;2.20;;;;;;;;;;5076208;28;20285;-64
2022/05/11 14:48:04;;;;;;;3.40;2.50;;;;;;;;;;5058082;28;20315;-65
2022/05/11 14:50:32;;;;;;;2.67;2.47;;;;;;;;;;5058594;28;20679;-64
2022/05/11 14:53:04;;;;;;;2.40;2.13;;;;;;;;;;5061360;28;20673;-65
2022/05/11 14:55:31;;;;;;;5.20;2.75;;;;;;;;;;5059995;28;20208;-64
2022/05/11 15:03:45;;;;;;;3.50;2.92;;;;;;;;;;5075718;28;20214;-63
2022/05/11 15:06:15;;;;;;;2.63;2.47;;;;;;;;;;5052846;28;20822;-64
2022/05/11 15:08:42;;;;;;;3.55;2.60;;;;;;;;;;5058198;28;20233;-65
2022/05/11 15:13:55;;;;;;;2.58;2.38;;;;;;;;;;5073838;28;20201;-67
2022/05/11 15:16:25;;;;;;;4.40;2.65;;;;;;;;;;5061045;28;20685;-66
2022/05/11 15:18:54;;;;;;;3.45;3.15;;;;;;;;;;5066964;28;20303;-67
2022/05/11 15:21:22;;;;;;;3.88;2.70;;;;;;;;;;5070158;28;20636;-66
2022/05/11 15:23:52;;;;;;;2.85;2.65;;;;;;;;;;5067421;28;20209;-66
2022/05/11 15:26:19;;;;;;;4.70;2.30;;;;;;;;;;5064380;28;20209;-66
2022/05/11 15:28:47;;;;;;;3.00;2.70;;;;;;;;;;5064051;28;20694;-66
2022/05/11 15:31:14;;;;;;;3.33;2.45;;;;;;;;;;5069867;28;20208;-66
2022/05/11 15:33:41;;;;;;;5.25;2.50;;;;;;;;;;5065860;28;20674;-67
2022/05/11 15:36:09;;;;;;;3.63;2.67;;;;;;;;;;5082778;28;20201;-67
2022/05/11 15:38:36;;;;;;;2.83;2.63;;;;;;;;;;5065354;28;20287;-66
2022/05/11 15:41:07;;;;;;;5.07;2.83;;;;;;;;;;5069311;28;20212;-67
2022/05/11 15:43:36;;;;;;;3.05;2.75;;;;;;;;;;5062012;28;20250;-67
2022/05/11 15:46:04;;;;;;;2.85;2.63;;;;;;;;;;5065134;28;20247;-66
2022/05/11 15:48:32;;;;;;;4.20;2.85;;;;;;;;;;5068634;28;20869;-66
2022/05/11 15:51:00;;;;;;;5.25;3.08;;;;;;;;;;5070105;28;20315;-67
2022/05/11 15:53:33;;;;;;;2.97;2.67;;;;;;;;;;5062457;28;20250;-66
2022/05/11 15:56:01;;;;;;;2.97;2.33;;;;;;;;;;5067487;28;20340;-67
2022/05/11 15:58:30;;;;;;;3.10;2.60;;;;;;;;;;5083195;28;20224;-66
2022/05/11 16:00:58;;;;;;;3.50;3.03;;;;;;;;;;5068951;28;20439;-67